createdAt,value
2024-05-09T00:01:51.933Z,12.00
2024-05-09T00:04:22.525Z,12.27
2024-05-09T00:06:52.970Z,12.30
2024-05-09T00:09:23.341Z,12.32
2024-05-09T00:11:56.935Z,12.30
2024-05-09T00:14:27.463Z,12.20
2024-05-09T00:17:00.734Z,12.50
2024-05-09T00:19:31.370Z,12.02
2024-05-09T00:22:01.872Z,11.88
2024-05-09T00:24:32.254Z,12.10
2024-05-09T00:27:02.753Z,12.60
2024-05-09T00:29:33.181Z,11.70
2024-05-09T00:32:06.522Z,12.63
2024-05-09T00:34:37.049Z,12.18
2024-05-09T00:37:10.548Z,12.32
2024-05-09T00:39:41.058Z,12.10
2024-05-09T00:42:11.625Z,11.40
2024-05-09T00:44:42.103Z,11.82
2024-05-09T00:47:16.544Z,12.18
2024-05-09T00:49:47.462Z,12.80
2024-05-09T00:52:18.047Z,11.90
2024-05-09T00:54:48.469Z,11.40
2024-05-09T00:57:20.492Z,11.52
2024-05-09T00:59:51.363Z,9.90
2024-05-09T01:02:34.728Z,10.00
2024-05-09T01:05:05.644Z,9.60
2024-05-09T01:07:36.077Z,10.00
2024-05-09T01:10:11.732Z,10.38
2024-05-09T01:12:47.453Z,10.35
2024-05-09T01:15:17.987Z,9.82
2024-05-09T01:17:51.819Z,9.10
2024-05-09T01:20:31.818Z,9.05
2024-05-09T01:23:14.748Z,8.93
2024-05-09T01:25:47.234Z,8.10
2024-05-09T01:28:17.795Z,6.70
2024-05-09T01:30:48.133Z,7.70
2024-05-09T01:33:18.743Z,7.80
2024-05-09T01:35:49.148Z,7.90
2024-05-09T01:38:22.458Z,8.30
2024-05-09T01:41:02.385Z,8.60
2024-05-09T01:43:35.627Z,9.05
2024-05-09T01:46:06.021Z,9.30
2024-05-09T01:48:36.757Z,10.00
2024-05-09T01:51:07.680Z,10.10
2024-05-09T01:53:40.979Z,10.07
2024-05-09T01:56:12.663Z,10.40
2024-05-09T01:58:43.091Z,10.10
2024-05-09T02:01:13.573Z,10.30
2024-05-09T02:03:44.035Z,10.05
2024-05-09T02:06:14.525Z,10.10
2024-05-09T02:08:49.271Z,10.23
2024-05-09T02:11:19.689Z,10.20
2024-05-09T02:13:50.156Z,10.30
2024-05-09T02:16:20.566Z,10.40
2024-05-09T02:18:51.481Z,10.70
2024-05-09T02:21:21.973Z,10.80
2024-05-09T02:23:54.966Z,10.20
2024-05-09T02:26:25.412Z,10.43
2024-05-09T02:28:55.880Z,10.93
2024-05-09T02:31:26.290Z,10.45
2024-05-09T02:33:56.904Z,9.90
2024-05-09T02:36:27.376Z,9.50
2024-05-09T02:38:57.857Z,9.10
2024-05-09T02:41:28.479Z,9.50
2024-05-09T02:43:56.308Z,10.30
2024-05-09T02:46:26.691Z,10.10
2024-05-09T02:48:54.593Z,10.20
2024-05-09T02:51:25.126Z,9.90
2024-05-09T02:53:52.957Z,10.18
2024-05-09T02:56:26.064Z,9.48
2024-05-09T02:58:53.916Z,9.93
2024-05-09T03:01:24.331Z,10.07
2024-05-09T03:03:52.412Z,9.13
2024-05-09T03:06:25.303Z,9.63
2024-05-09T03:08:53.243Z,9.23
2024-05-09T03:11:29.694Z,9.88
2024-05-09T03:13:57.741Z,9.70
2024-05-09T03:16:28.208Z,9.90
2024-05-09T03:18:56.278Z,10.15
2024-05-09T03:21:26.692Z,10.00
2024-05-09T03:23:54.484Z,10.07
2024-05-09T03:26:25.007Z,9.60
2024-05-09T03:28:55.460Z,8.32
2024-05-09T03:31:25.892Z,6.70
2024-05-09T03:33:53.758Z,6.60
2024-05-09T03:36:24.186Z,6.20
2024-05-09T03:38:54.562Z,5.90
2024-05-09T03:41:25.060Z,6.00
2024-05-09T03:43:58.374Z,6.10
2024-05-09T03:46:26.119Z,6.40
2024-05-09T03:48:56.566Z,7.70
2024-05-09T03:51:24.388Z,7.30
2024-05-09T03:53:54.763Z,8.10
2024-05-09T03:56:22.604Z,7.90
2024-05-09T03:58:53.020Z,6.90
2024-05-09T04:01:25.293Z,6.60
2024-05-09T04:03:55.843Z,5.90
2024-05-09T04:06:25.793Z,6.18
2024-05-09T04:08:56.396Z,6.40
2024-05-09T04:11:24.180Z,6.40
2024-05-09T04:13:54.687Z,7.00
2024-05-09T04:16:25.156Z,7.65
2024-05-09T04:18:55.639Z,7.53
2024-05-09T04:21:23.401Z,5.20
2024-05-09T04:23:53.782Z,3.88
2024-05-09T04:26:24.203Z,5.60
2024-05-09T04:28:52.023Z,5.40
2024-05-09T04:31:22.446Z,5.97
2024-05-09T04:33:53.097Z,5.00
2024-05-09T04:36:23.545Z,4.45
2024-05-09T04:38:51.262Z,5.85
2024-05-09T04:41:21.624Z,6.20
2024-05-09T04:43:51.051Z,4.00
2024-05-09T04:46:21.507Z,4.43
2024-05-09T04:48:53.809Z,4.60
2024-05-09T04:51:24.270Z,4.93
2024-05-09T04:53:52.253Z,4.93
2024-05-09T04:56:22.905Z,5.00
2024-05-09T04:58:50.709Z,5.30
2024-05-09T05:01:24.227Z,6.97
2024-05-09T05:03:59.839Z,6.27
2024-05-09T05:06:30.665Z,5.00
2024-05-09T05:08:58.435Z,5.10
2024-05-09T05:11:29.029Z,5.17
2024-05-09T05:13:57.131Z,6.50
2024-05-09T05:16:27.573Z,5.40
2024-05-09T05:18:58.135Z,8.17
2024-05-09T05:21:28.865Z,8.30
2024-05-09T05:24:07.717Z,5.80
2024-05-09T05:26:39.222Z,6.50
2024-05-09T05:29:07.077Z,8.70
2024-05-09T05:31:37.541Z,6.70
2024-05-09T05:34:08.122Z,7.47
2024-05-09T05:36:38.540Z,9.27
2024-05-09T05:39:06.320Z,17.90
2024-05-09T05:41:36.802Z,12.73
2024-05-09T05:44:07.327Z,14.10
2024-05-09T05:46:35.131Z,13.43
2024-05-09T05:49:05.941Z,18.73
2024-05-09T05:51:36.387Z,14.50
2024-05-09T05:54:06.795Z,15.27
2024-05-09T05:56:34.620Z,7.30
2024-05-09T05:59:05.153Z,8.90
2024-05-09T06:01:33.014Z,9.13
2024-05-09T06:04:03.562Z,5.70
2024-05-09T06:06:31.548Z,6.40
2024-05-09T06:09:04.567Z,7.27
2024-05-09T06:11:32.468Z,10.57
2024-05-09T06:14:05.540Z,6.50
2024-05-09T06:16:33.444Z,6.20
2024-05-09T06:19:04.068Z,7.83
2024-05-09T06:21:31.881Z,9.60
2024-05-09T06:24:06.732Z,6.90
2024-05-09T06:26:34.706Z,8.70
2024-05-09T06:29:05.366Z,9.00
2024-05-09T06:31:33.072Z,9.27
2024-05-09T06:34:06.394Z,10.10
2024-05-09T06:36:40.507Z,9.40
2024-05-09T06:39:18.855Z,11.00
2024-05-09T06:41:46.625Z,9.30
2024-05-09T06:44:17.040Z,7.47
2024-05-09T06:46:45.607Z,11.83
2024-05-09T06:49:16.395Z,11.30
2024-05-09T06:51:44.183Z,12.50
2024-05-09T06:54:18.492Z,12.93
2024-05-09T06:56:46.242Z,10.90
2024-05-09T06:59:16.730Z,11.10
2024-05-09T07:01:44.851Z,13.30
2024-05-09T07:04:15.602Z,8.63
2024-05-09T07:06:43.606Z,9.00
2024-05-09T07:09:16.647Z,11.20
2024-05-09T07:11:44.550Z,15.67
2024-05-09T07:14:16.276Z,9.70
2024-05-09T07:16:46.946Z,13.10
2024-05-09T07:19:20.188Z,14.68
2024-05-09T07:21:48.313Z,14.00
2024-05-09T07:24:21.402Z,14.25
2024-05-09T07:26:49.257Z,12.33
2024-05-09T07:29:19.759Z,8.50
2024-05-09T07:31:47.585Z,13.83
2024-05-09T07:34:18.248Z,12.27
2024-05-09T07:36:49.018Z,13.40
2024-05-09T07:39:25.182Z,15.10
2024-05-09T07:41:52.925Z,13.95
2024-05-09T07:44:23.365Z,14.02
2024-05-09T07:47:52.332Z,13.40
2024-05-09T07:51:32.255Z,11.52
2024-05-09T07:53:32.557Z,14.50
2024-05-09T07:55:22.596Z,15.68
2024-05-09T07:57:50.532Z,11.40
2024-05-09T08:00:29.487Z,14.60
2024-05-09T08:02:59.446Z,12.35
2024-05-09T08:05:29.968Z,14.60
2024-05-09T08:07:57.783Z,16.58
2024-05-09T08:10:31.031Z,13.10
2024-05-09T08:12:58.859Z,10.65
2024-05-09T08:15:29.486Z,15.43
2024-05-09T08:17:57.474Z,15.57
2024-05-09T08:20:33.461Z,12.02
2024-05-09T08:23:05.541Z,13.75
2024-05-09T08:25:38.845Z,15.60
2024-05-09T08:28:07.279Z,10.32
2024-05-09T08:30:38.422Z,18.08
2024-05-09T08:33:07.793Z,26.20
2024-05-09T08:35:40.244Z,27.33
2024-05-09T08:38:08.402Z,22.00
2024-05-09T08:40:41.740Z,23.88
2024-05-09T08:43:12.096Z,21.35
2024-05-09T08:45:45.059Z,25.63
2024-05-09T08:48:15.740Z,26.13
2024-05-09T08:50:47.103Z,22.35
2024-05-09T08:53:15.466Z,17.52
2024-05-09T08:55:49.831Z,22.90
2024-05-09T08:58:21.559Z,19.50
2024-05-09T09:00:52.158Z,21.08
2024-05-09T09:03:23.000Z,24.58
2024-05-09T09:06:01.923Z,26.42
2024-05-09T09:08:29.886Z,20.95
2024-05-09T09:11:05.981Z,18.90
2024-05-09T09:13:33.737Z,19.10
2024-05-09T09:16:04.359Z,24.98
2024-05-09T09:18:33.239Z,23.02
2024-05-09T09:21:05.894Z,22.15
2024-05-09T09:23:34.399Z,10.32
2024-05-09T09:26:07.618Z,14.15
2024-05-09T09:28:37.439Z,14.05
2024-05-09T09:31:14.082Z,12.60
2024-05-09T09:33:43.204Z,18.23
2024-05-09T09:36:14.583Z,12.57
2024-05-09T09:38:42.600Z,13.63
2024-05-09T09:41:16.456Z,14.30
2024-05-09T09:43:44.630Z,15.23
2024-05-09T09:46:18.294Z,10.20
2024-05-09T09:48:50.613Z,12.02
2024-05-09T09:51:21.860Z,9.23
2024-05-09T09:53:52.824Z,12.77
2024-05-09T09:56:27.135Z,12.50
2024-05-09T09:58:58.018Z,10.68
2024-05-09T14:00:38.145Z,11.23
2024-05-09T14:03:12.059Z,14.05
2024-05-09T14:05:43.365Z,15.48
2024-05-09T14:08:11.643Z,15.55
2024-05-09T14:10:44.768Z,14.20
2024-05-09T14:13:13.353Z,10.90
2024-05-09T14:15:46.974Z,24.92
2024-05-09T14:18:15.167Z,38.00
2024-05-09T14:20:45.726Z,39.60
2024-05-09T14:23:13.758Z,42.47
2024-05-09T14:25:45.971Z,43.35
2024-05-09T14:28:15.207Z,43.45
2024-05-09T14:30:48.367Z,14.65
2024-05-09T14:33:20.814Z,12.35
2024-05-09T14:35:51.456Z,15.65
2024-05-09T14:38:21.125Z,15.27
2024-05-09T14:40:51.803Z,11.85
2024-05-09T14:43:21.916Z,11.10
2024-05-09T14:45:56.122Z,12.45
2024-05-09T14:48:27.254Z,11.70
2024-05-09T14:51:00.722Z,13.88
2024-05-09T14:53:28.627Z,14.20
2024-05-09T14:55:59.274Z,13.93
2024-05-09T14:58:27.326Z,14.02
2024-05-09T15:01:00.573Z,13.77
2024-05-09T15:03:28.590Z,14.52
2024-05-09T15:05:59.625Z,14.30
2024-05-09T15:08:27.670Z,15.48
2024-05-09T15:11:00.992Z,14.73
2024-05-09T15:13:29.120Z,13.20
2024-05-09T15:16:02.460Z,13.77
2024-05-09T15:18:30.544Z,12.27
2024-05-09T15:21:01.389Z,13.43
2024-05-09T15:23:29.120Z,13.50
2024-05-09T15:25:59.530Z,13.00
2024-05-09T15:28:27.431Z,13.65
2024-05-09T15:31:03.723Z,13.10
2024-05-09T15:33:31.665Z,13.57
2024-05-09T15:36:02.554Z,13.02
2024-05-09T15:38:30.472Z,15.27
2024-05-09T15:41:01.038Z,15.10
2024-05-09T15:43:28.843Z,13.10
2024-05-09T15:45:59.441Z,12.63
2024-05-09T15:48:30.201Z,12.65
2024-05-09T15:51:00.988Z,12.90
2024-05-09T15:53:31.628Z,12.50
2024-05-09T15:55:59.410Z,16.85
2024-05-09T15:58:32.343Z,12.73
2024-05-09T16:01:03.460Z,13.00
2024-05-09T16:03:37.046Z,15.32
2024-05-09T16:06:05.720Z,19.95
2024-05-09T16:08:36.830Z,13.90
2024-05-09T16:11:05.543Z,13.75
2024-05-09T16:13:36.161Z,14.25
2024-05-09T16:16:04.666Z,16.08
2024-05-09T16:18:37.834Z,14.75
2024-05-09T16:21:06.204Z,16.48
2024-05-09T16:23:43.695Z,14.30
2024-05-09T16:26:13.268Z,14.38
2024-05-09T16:28:46.841Z,15.80
2024-05-09T16:31:14.795Z,12.80
2024-05-09T16:33:47.943Z,12.68
2024-05-09T16:36:18.116Z,12.93
2024-05-09T16:38:48.751Z,13.30
2024-05-09T16:41:16.736Z,15.15
2024-05-09T16:43:47.126Z,10.48
2024-05-09T16:46:15.384Z,13.20
2024-05-09T16:48:48.841Z,13.05
2024-05-09T16:51:16.747Z,11.32
2024-05-09T16:53:47.109Z,12.85
2024-05-09T16:56:14.936Z,13.13
2024-05-09T16:58:45.470Z,13.52
2024-05-09T17:01:13.733Z,12.00
2024-05-09T17:03:44.312Z,11.90
2024-05-09T17:06:17.611Z,12.30
2024-05-09T17:08:45.471Z,12.17
2024-05-09T17:11:22.607Z,12.77
2024-05-09T17:13:53.249Z,12.18
2024-05-09T17:16:40.354Z,11.73
2024-05-09T17:19:38.714Z,11.85
2024-05-09T17:24:57.707Z,11.80
2024-05-09T17:27:27.642Z,12.43
2024-05-09T17:30:21.597Z,12.00
2024-05-09T17:36:15.638Z,12.10
2024-05-09T17:38:48.192Z,12.13
2024-05-09T17:42:14.436Z,11.60
2024-05-09T17:45:00.846Z,11.10
2024-05-09T17:47:31.505Z,11.30
2024-05-09T17:50:01.548Z,11.30
2024-05-09T17:52:45.417Z,11.40
2024-05-09T17:55:23.358Z,11.23
2024-05-09T17:58:10.010Z,12.23
2024-05-09T18:00:46.660Z,11.80
2024-05-09T18:03:15.225Z,11.60
2024-05-09T18:05:49.027Z,11.77
2024-05-09T18:08:21.287Z,11.80
2024-05-09T18:11:06.502Z,11.30
2024-05-09T18:13:55.998Z,11.43
2024-05-09T18:16:35.221Z,11.35
2024-05-09T18:19:03.332Z,11.80
2024-05-09T18:21:33.904Z,11.55
2024-05-09T18:24:01.706Z,11.15
2024-05-09T18:26:58.960Z,11.45
2024-05-09T18:29:42.315Z,11.32
2024-05-09T18:32:45.855Z,11.65
2024-05-09T18:35:26.276Z,12.68
2024-05-09T18:38:32.691Z,12.50
2024-05-09T18:45:10.654Z,12.05
2024-05-09T18:48:10.108Z,12.40
2024-05-09T18:51:13.153Z,12.60
2024-05-09T18:53:42.248Z,12.50
2024-05-09T18:56:14.420Z,12.55
2024-05-09T18:58:42.206Z,12.75
2024-05-09T19:01:56.631Z,11.90
2024-05-09T19:05:23.510Z,11.90
2024-05-09T19:12:07.350Z,12.25
2024-05-09T19:14:37.926Z,12.40
2024-05-09T19:17:05.797Z,12.40
2024-05-09T19:24:06.938Z,12.57
2024-05-09T19:26:37.375Z,12.20
2024-05-09T19:29:17.454Z,13.40
2024-05-09T19:34:47.133Z,12.32
2024-05-09T19:37:39.545Z,12.63
2024-05-09T19:44:24.547Z,12.40
2024-05-09T19:51:00.560Z,12.40
2024-05-09T19:53:58.604Z,12.90
2024-05-09T19:56:59.550Z,12.45
2024-05-09T19:59:56.971Z,12.77
2024-05-09T20:02:27.766Z,12.32
2024-05-09T20:04:58.261Z,13.90
2024-05-09T20:07:28.749Z,13.07
2024-05-09T20:09:56.600Z,12.07
2024-05-09T20:12:27.054Z,12.43
2024-05-09T20:14:55.037Z,11.68
2024-05-09T20:17:55.975Z,12.25
2024-05-09T20:21:06.718Z,12.00
2024-05-09T20:23:56.268Z,11.77
2024-05-09T20:26:56.518Z,11.80
2024-05-09T20:29:24.266Z,12.13
2024-05-09T20:31:54.659Z,12.30
2024-05-09T20:34:22.610Z,11.55
2024-05-09T20:36:55.761Z,12.10
2024-05-09T20:39:26.751Z,12.25
2024-05-09T20:41:58.028Z,12.30
2024-05-09T20:44:58.513Z,12.93
2024-05-09T20:51:41.343Z,12.45
2024-05-09T20:54:11.972Z,12.88
2024-05-09T20:56:42.457Z,13.30
2024-05-09T20:59:38.329Z,12.40
2024-05-09T21:02:09.166Z,13.00
2024-05-09T21:04:37.179Z,12.68
2024-05-09T21:07:17.277Z,13.00
2024-05-09T21:09:47.984Z,12.68
2024-05-09T21:12:18.490Z,12.35
2024-05-09T21:14:49.324Z,12.55
2024-05-09T21:17:20.042Z,12.40
2024-05-09T21:19:47.917Z,12.75
2024-05-09T21:22:18.681Z,13.35
2024-05-09T21:24:49.421Z,12.93
2024-05-09T21:27:27.178Z,13.20
2024-05-09T21:29:55.139Z,13.20
2024-05-09T21:32:25.616Z,12.85
2024-05-09T21:34:53.491Z,12.85
2024-05-09T21:37:23.972Z,13.23
2024-05-09T21:39:54.432Z,13.20
2024-05-09T21:42:24.856Z,12.80
2024-05-09T21:44:52.587Z,12.82
2024-05-09T21:47:26.385Z,13.45
2024-05-09T21:49:54.327Z,12.73
2024-05-09T21:52:24.698Z,12.80
2024-05-09T21:54:55.190Z,13.30
2024-05-09T21:57:25.641Z,12.98
2024-05-09T21:59:53.496Z,13.05
2024-05-09T22:02:26.671Z,12.80
2024-05-09T22:04:54.622Z,13.10
2024-05-09T22:07:25.149Z,12.80
2024-05-09T22:10:12.819Z,13.23
2024-05-09T22:12:51.416Z,13.20
2024-05-09T22:15:20.844Z,12.88
2024-05-09T22:17:52.171Z,13.40
2024-05-09T22:20:28.721Z,14.00
2024-05-09T22:23:09.085Z,13.10
2024-05-09T22:25:39.811Z,13.43
2024-05-09T22:28:14.345Z,13.60
2024-05-09T22:30:56.037Z,14.10
2024-05-09T22:33:38.558Z,13.38
2024-05-09T22:36:08.794Z,14.02
2024-05-09T22:38:39.455Z,13.30
2024-05-09T22:41:10.488Z,13.55
2024-05-09T22:43:41.040Z,13.10
2024-05-09T22:46:15.793Z,13.43
2024-05-09T22:49:04.306Z,12.95
2024-05-09T22:51:56.367Z,14.32
2024-05-09T22:54:37.443Z,12.85
2024-05-09T22:57:10.202Z,13.00
2024-05-09T22:59:51.151Z,13.25
2024-05-09T23:02:25.322Z,13.07
2024-05-09T23:08:13.411Z,13.05
2024-05-09T23:11:16.612Z,13.02
2024-05-09T23:14:06.704Z,13.70
2024-05-09T23:19:55.550Z,13.48
2024-05-09T23:22:32.592Z,13.77
2024-05-09T23:25:03.277Z,13.45
2024-05-09T23:27:34.741Z,13.40
2024-05-09T23:30:28.270Z,13.73
2024-05-09T23:33:02.579Z,13.30
2024-05-09T23:35:33.078Z,13.50
2024-05-09T23:38:00.879Z,13.55
2024-05-09T23:40:38.479Z,13.30
2024-05-09T23:43:09.219Z,14.37
2024-05-09T23:45:57.181Z,13.40
2024-05-09T23:48:39.474Z,13.30
2024-05-09T23:51:10.006Z,13.30
2024-05-09T23:53:37.834Z,13.32
2024-05-09T23:56:09.158Z,13.50
2024-05-09T23:58:36.991Z,13.20
